Sulphur, Louisiana
Current Conditions -  °F | °C
As of 12:15 AM on Monday 26 Jan 2015 (Local Time) from KUXL Reporting Station
Clear Clear  
Wind Chill: 55°   Ceiling: Unl
Heat Index: 55°   Visibility: 10mi
Dew Point: 29°   Wind: 13mph
Humidity: 38%   Direction: 320°NW
Pressure: 30.1"   Gusts: NA
Location:  30.24°N, 93.38°W
Report Text: KUXL 260615Z AUTO 32011KT 10SM CLR 13/M01 A3010 RMK AO2 T01261015
Loading
Personal Weather Stations






























Interactive Weather Map New forecast layout! Learn more

10-Day Weather Forecast

Advertisements
Track Severe Weather on mobile